sensor_id;sensor_type;location;lat;lon;timestamp;P1;durP1;ratioP1;P2;durP2;ratioP2
22415;SDS011;12204;50.600;4.608;2023-12-20T00:03:13;45.25;;;20.05;;
22415;SDS011;12204;50.600;4.608;2023-12-20T00:08:17;49.13;;;20.17;;
22415;SDS011;12204;50.600;4.608;2023-12-20T00:13:20;44.00;;;19.10;;
22415;SDS011;12204;50.600;4.608;2023-12-20T00:18:25;40.42;;;18.77;;
22415;SDS011;12204;50.600;4.608;2023-12-20T00:23:29;38.05;;;18.55;;
22415;SDS011;12204;50.600;4.608;2023-12-20T00:28:32;39.97;;;18.55;;
22415;SDS011;12204;50.600;4.608;2023-12-20T00:33:37;36.72;;;17.42;;
22415;SDS011;12204;50.600;4.608;2023-12-20T00:38:45;35.33;;;17.90;;
22415;SDS011;12204;50.600;4.608;2023-12-20T00:43:48;38.00;;;17.25;;
22415;SDS011;12204;50.600;4.608;2023-12-20T00:48:53;37.08;;;17.10;;
22415;SDS011;12204;50.600;4.608;2023-12-20T00:53:57;38.08;;;17.17;;
22415;SDS011;12204;50.600;4.608;2023-12-20T00:59:00;34.22;;;17.38;;
22415;SDS011;12204;50.600;4.608;2023-12-20T01:04:05;34.53;;;17.05;;
22415;SDS011;12204;50.600;4.608;2023-12-20T01:09:08;34.53;;;15.88;;
22415;SDS011;12204;50.600;4.608;2023-12-20T01:14:12;32.20;;;15.93;;
22415;SDS011;12204;50.600;4.608;2023-12-20T01:19:17;35.90;;;16.85;;
22415;SDS011;12204;50.600;4.608;2023-12-20T01:24:20;37.28;;;16.90;;
22415;SDS011;12204;50.600;4.608;2023-12-20T01:29:24;32.38;;;16.05;;
22415;SDS011;12204;50.600;4.608;2023-12-20T01:34:29;35.95;;;16.40;;
22415;SDS011;12204;50.600;4.608;2023-12-20T01:39:32;31.70;;;15.27;;
22415;SDS011;12204;50.600;4.608;2023-12-20T01:44:36;32.25;;;16.30;;
22415;SDS011;12204;50.600;4.608;2023-12-20T01:49:41;32.08;;;15.32;;
22415;SDS011;12204;50.600;4.608;2023-12-20T01:54:45;33.40;;;15.95;;
22415;SDS011;12204;50.600;4.608;2023-12-20T01:59:49;31.20;;;15.10;;
22415;SDS011;12204;50.600;4.608;2023-12-20T02:04:54;31.17;;;14.80;;
22415;SDS011;12204;50.600;4.608;2023-12-20T02:09:58;29.52;;;14.75;;
22415;SDS011;12204;50.600;4.608;2023-12-20T02:15:02;29.17;;;13.90;;
22415;SDS011;12204;50.600;4.608;2023-12-20T02:20:08;27.17;;;13.68;;
22415;SDS011;12204;50.600;4.608;2023-12-20T02:25:14;26.92;;;13.50;;
22415;SDS011;12204;50.600;4.608;2023-12-20T02:30:18;28.95;;;12.30;;
22415;SDS011;12204;50.600;4.608;2023-12-20T02:35:23;24.65;;;12.40;;
22415;SDS011;12204;50.600;4.608;2023-12-20T02:40:28;26.55;;;12.27;;
22415;SDS011;12204;50.600;4.608;2023-12-20T02:45:31;23.40;;;12.10;;
22415;SDS011;12204;50.600;4.608;2023-12-20T02:50:35;21.27;;;11.27;;
22415;SDS011;12204;50.600;4.608;2023-12-20T02:55:40;23.25;;;11.00;;
22415;SDS011;12204;50.600;4.608;2023-12-20T03:00:43;24.67;;;11.40;;
22415;SDS011;12204;50.600;4.608;2023-12-20T03:05:47;24.15;;;10.88;;
22415;SDS011;12204;50.600;4.608;2023-12-20T03:10:52;22.63;;;10.93;;
22415;SDS011;12204;50.600;4.608;2023-12-20T03:15:55;23.08;;;10.85;;
22415;SDS011;12204;50.600;4.608;2023-12-20T03:20:59;20.55;;;10.60;;
22415;SDS011;12204;50.600;4.608;2023-12-20T03:26:05;19.13;;;9.52;;
22415;SDS011;12204;50.600;4.608;2023-12-20T03:36:13;19.63;;;9.30;;
22415;SDS011;12204;50.600;4.608;2023-12-20T03:41:18;17.20;;;8.77;;
22415;SDS011;12204;50.600;4.608;2023-12-20T03:46:22;17.38;;;7.85;;
22415;SDS011;12204;50.600;4.608;2023-12-20T03:51:25;14.93;;;6.85;;
22415;SDS011;12204;50.600;4.608;2023-12-20T03:56:30;14.20;;;6.05;;
22415;SDS011;12204;50.600;4.608;2023-12-20T04:01:33;12.55;;;5.45;;
22415;SDS011;12204;50.600;4.608;2023-12-20T04:06:37;11.43;;;5.03;;
22415;SDS011;12204;50.600;4.608;2023-12-20T04:11:42;10.88;;;4.97;;
22415;SDS011;12204;50.600;4.608;2023-12-20T04:16:45;11.98;;;4.90;;
22415;SDS011;12204;50.600;4.608;2023-12-20T04:21:49;10.40;;;4.68;;
22415;SDS011;12204;50.600;4.608;2023-12-20T04:26:54;10.70;;;4.40;;
22415;SDS011;12204;50.600;4.608;2023-12-20T04:31:58;9.70;;;4.40;;
22415;SDS011;12204;50.600;4.608;2023-12-20T04:37:01;10.82;;;4.18;;
22415;SDS011;12204;50.600;4.608;2023-12-20T04:42:06;9.05;;;4.00;;
22415;SDS011;12204;50.600;4.608;2023-12-20T04:47:10;10.00;;;4.20;;
22415;SDS011;12204;50.600;4.608;2023-12-20T04:52:13;8.95;;;3.83;;
22415;SDS011;12204;50.600;4.608;2023-12-20T04:57:19;9.35;;;3.75;;
22415;SDS011;12204;50.600;4.608;2023-12-20T05:02:22;8.48;;;3.60;;
22415;SDS011;12204;50.600;4.608;2023-12-20T05:07:26;8.75;;;3.75;;
22415;SDS011;12204;50.600;4.608;2023-12-20T05:12:31;9.52;;;3.47;;
22415;SDS011;12204;50.600;4.608;2023-12-20T05:17:34;9.13;;;3.38;;
22415;SDS011;12204;50.600;4.608;2023-12-20T05:22:38;8.75;;;3.50;;
22415;SDS011;12204;50.600;4.608;2023-12-20T05:27:44;8.93;;;3.55;;
22415;SDS011;12204;50.600;4.608;2023-12-20T05:32:48;8.27;;;3.47;;
22415;SDS011;12204;50.600;4.608;2023-12-20T05:37:52;9.32;;;3.47;;
22415;SDS011;12204;50.600;4.608;2023-12-20T05:42:57;13.95;;;3.38;;
22415;SDS011;12204;50.600;4.608;2023-12-20T05:48:01;8.88;;;3.35;;
22415;SDS011;12204;50.600;4.608;2023-12-20T05:53:05;9.57;;;3.42;;
22415;SDS011;12204;50.600;4.608;2023-12-20T05:58:09;11.13;;;3.90;;
22415;SDS011;12204;50.600;4.608;2023-12-20T06:03:13;7.82;;;3.20;;
22415;SDS011;12204;50.600;4.608;2023-12-20T06:08:16;9.15;;;3.13;;
22415;SDS011;12204;50.600;4.608;2023-12-20T06:13:21;8.60;;;2.97;;
22415;SDS011;12204;50.600;4.608;2023-12-20T06:18:25;9.23;;;3.08;;
22415;SDS011;12204;50.600;4.608;2023-12-20T06:23:28;9.20;;;3.05;;
22415;SDS011;12204;50.600;4.608;2023-12-20T06:28:33;10.13;;;2.60;;
22415;SDS011;12204;50.600;4.608;2023-12-20T06:33:40;7.75;;;2.67;;
22415;SDS011;12204;50.600;4.608;2023-12-20T06:38:45;7.65;;;2.60;;
22415;SDS011;12204;50.600;4.608;2023-12-20T06:43:50;7.30;;;2.83;;
22415;SDS011;12204;50.600;4.608;2023-12-20T06:48:54;7.45;;;2.65;;
22415;SDS011;12204;50.600;4.608;2023-12-20T06:53:58;8.07;;;2.70;;
22415;SDS011;12204;50.600;4.608;2023-12-20T06:59:05;5.55;;;2.35;;
22415;SDS011;12204;50.600;4.608;2023-12-20T07:04:08;8.20;;;2.95;;
22415;SDS011;12204;50.600;4.608;2023-12-20T07:09:12;10.00;;;2.78;;
22415;SDS011;12204;50.600;4.608;2023-12-20T07:14:18;7.43;;;2.65;;
22415;SDS011;12204;50.600;4.608;2023-12-20T07:19:21;7.25;;;2.67;;
22415;SDS011;12204;50.600;4.608;2023-12-20T07:24:25;6.72;;;2.60;;
22415;SDS011;12204;50.600;4.608;2023-12-20T07:29:30;8.70;;;2.53;;
22415;SDS011;12204;50.600;4.608;2023-12-20T07:34:33;8.55;;;2.58;;
22415;SDS011;12204;50.600;4.608;2023-12-20T07:39:38;6.03;;;2.30;;
22415;SDS011;12204;50.600;4.608;2023-12-20T07:44:44;9.52;;;2.22;;
22415;SDS011;12204;50.600;4.608;2023-12-20T07:49:48;6.53;;;2.03;;
22415;SDS011;12204;50.600;4.608;2023-12-20T07:54:53;5.35;;;1.80;;
22415;SDS011;12204;50.600;4.608;2023-12-20T07:59:58;7.85;;;2.10;;
22415;SDS011;12204;50.600;4.608;2023-12-20T08:05:01;6.05;;;1.95;;
22415;SDS011;12204;50.600;4.608;2023-12-20T08:10:06;12.48;;;1.90;;
22415;SDS011;12204;50.600;4.608;2023-12-20T08:15:12;6.28;;;1.80;;
22415;SDS011;12204;50.600;4.608;2023-12-20T08:20:16;6.70;;;1.70;;
22415;SDS011;12204;50.600;4.608;2023-12-20T08:25:30;8.25;;;1.90;;
22415;SDS011;12204;50.600;4.608;2023-12-20T08:30:35;6.32;;;1.77;;
22415;SDS011;12204;50.600;4.608;2023-12-20T08:35:38;8.68;;;2.25;;
22415;SDS011;12204;50.600;4.608;2023-12-20T08:40:42;16.60;;;2.45;;
22415;SDS011;12204;50.600;4.608;2023-12-20T08:45:47;12.75;;;2.35;;
22415;SDS011;12204;50.600;4.608;2023-12-20T08:50:50;17.73;;;2.60;;
22415;SDS011;12204;50.600;4.608;2023-12-20T08:55:54;17.02;;;2.92;;
22415;SDS011;12204;50.600;4.608;2023-12-20T09:01:00;10.88;;;2.40;;
22415;SDS011;12204;50.600;4.608;2023-12-20T09:06:04;11.52;;;2.70;;
22415;SDS011;12204;50.600;4.608;2023-12-20T09:11:08;17.48;;;5.30;;
22415;SDS011;12204;50.600;4.608;2023-12-20T09:16:14;17.83;;;6.07;;
22415;SDS011;12204;50.600;4.608;2023-12-20T09:21:18;21.55;;;7.07;;
22415;SDS011;12204;50.600;4.608;2023-12-20T09:26:22;22.63;;;8.18;;
22415;SDS011;12204;50.600;4.608;2023-12-20T09:31:27;22.60;;;8.35;;
22415;SDS011;12204;50.600;4.608;2023-12-20T09:36:31;26.38;;;9.70;;
22415;SDS011;12204;50.600;4.608;2023-12-20T09:41:37;29.45;;;11.02;;
22415;SDS011;12204;50.600;4.608;2023-12-20T09:46:49;28.23;;;10.75;;
22415;SDS011;12204;50.600;4.608;2023-12-20T09:51:53;29.90;;;12.00;;
22415;SDS011;12204;50.600;4.608;2023-12-20T09:56:58;28.40;;;11.98;;
22415;SDS011;12204;50.600;4.608;2023-12-20T10:02:03;31.85;;;12.38;;
22415;SDS011;12204;50.600;4.608;2023-12-20T10:07:15;29.10;;;11.48;;
22415;SDS011;12204;50.600;4.608;2023-12-20T10:12:19;29.90;;;11.38;;
22415;SDS011;12204;50.600;4.608;2023-12-20T10:17:24;27.25;;;11.50;;
22415;SDS011;12204;50.600;4.608;2023-12-20T10:22:31;28.70;;;11.55;;
22415;SDS011;12204;50.600;4.608;2023-12-20T10:27:35;29.95;;;11.75;;
22415;SDS011;12204;50.600;4.608;2023-12-20T10:32:40;29.98;;;11.60;;
22415;SDS011;12204;50.600;4.608;2023-12-20T10:37:43;33.20;;;12.35;;
22415;SDS011;12204;50.600;4.608;2023-12-20T10:42:47;30.48;;;12.48;;
22415;SDS011;12204;50.600;4.608;2023-12-20T10:47:54;30.45;;;12.75;;
22415;SDS011;12204;50.600;4.608;2023-12-20T10:53:01;29.80;;;11.98;;
22415;SDS011;12204;50.600;4.608;2023-12-20T10:58:06;29.10;;;12.10;;
22415;SDS011;12204;50.600;4.608;2023-12-20T11:03:13;30.70;;;11.60;;
22415;SDS011;12204;50.600;4.608;2023-12-20T11:08:20;27.23;;;10.98;;
22415;SDS011;12204;50.600;4.608;2023-12-20T11:13:34;28.63;;;11.02;;
22415;SDS011;12204;50.600;4.608;2023-12-20T11:18:47;25.92;;;11.30;;
22415;SDS011;12204;50.600;4.608;2023-12-20T11:23:54;25.55;;;10.52;;
22415;SDS011;12204;50.600;4.608;2023-12-20T11:34:37;23.85;;;9.85;;
22415;SDS011;12204;50.600;4.608;2023-12-20T11:39:41;21.65;;;9.82;;
22415;SDS011;12204;50.600;4.608;2023-12-20T11:44:46;23.73;;;9.27;;
22415;SDS011;12204;50.600;4.608;2023-12-20T11:49:51;23.50;;;9.40;;
22415;SDS011;12204;50.600;4.608;2023-12-20T11:54:57;21.70;;;9.10;;
22415;SDS011;12204;50.600;4.608;2023-12-20T12:00:01;20.08;;;8.65;;
22415;SDS011;12204;50.600;4.608;2023-12-20T12:05:13;23.75;;;9.27;;
22415;SDS011;12204;50.600;4.608;2023-12-20T12:10:17;19.65;;;8.40;;
22415;SDS011;12204;50.600;4.608;2023-12-20T12:15:21;21.10;;;8.40;;
22415;SDS011;12204;50.600;4.608;2023-12-20T12:20:26;21.52;;;8.25;;
22415;SDS011;12204;50.600;4.608;2023-12-20T12:25:29;20.15;;;8.25;;
22415;SDS011;12204;50.600;4.608;2023-12-20T12:30:36;19.87;;;7.63;;
22415;SDS011;12204;50.600;4.608;2023-12-20T12:35:55;20.77;;;7.77;;
22415;SDS011;12204;50.600;4.608;2023-12-20T12:40:59;19.30;;;7.00;;
22415;SDS011;12204;50.600;4.608;2023-12-20T12:46:03;20.45;;;8.02;;
22415;SDS011;12204;50.600;4.608;2023-12-20T12:51:08;19.88;;;7.47;;
22415;SDS011;12204;50.600;4.608;2023-12-20T12:56:14;17.75;;;7.05;;
22415;SDS011;12204;50.600;4.608;2023-12-20T13:01:18;19.77;;;7.35;;
22415;SDS011;12204;50.600;4.608;2023-12-20T13:06:23;19.33;;;6.93;;
22415;SDS011;12204;50.600;4.608;2023-12-20T13:11:27;16.70;;;6.85;;
22415;SDS011;12204;50.600;4.608;2023-12-20T13:16:30;15.68;;;6.72;;
22415;SDS011;12204;50.600;4.608;2023-12-20T13:21:37;16.98;;;6.30;;
22415;SDS011;12204;50.600;4.608;2023-12-20T13:26:41;16.75;;;6.57;;
22415;SDS011;12204;50.600;4.608;2023-12-20T13:31:44;14.70;;;6.10;;
22415;SDS011;12204;50.600;4.608;2023-12-20T13:36:49;15.73;;;6.00;;
22415;SDS011;12204;50.600;4.608;2023-12-20T13:41:53;14.13;;;5.70;;
22415;SDS011;12204;50.600;4.608;2023-12-20T13:47:00;17.37;;;6.27;;
22415;SDS011;12204;50.600;4.608;2023-12-20T13:52:06;17.05;;;6.13;;
22415;SDS011;12204;50.600;4.608;2023-12-20T13:57:09;13.70;;;5.30;;
22415;SDS011;12204;50.600;4.608;2023-12-20T14:02:32;12.40;;;4.97;;
22415;SDS011;12204;50.600;4.608;2023-12-20T14:07:36;13.85;;;4.90;;
22415;SDS011;12204;50.600;4.608;2023-12-20T14:12:40;15.13;;;5.40;;
22415;SDS011;12204;50.600;4.608;2023-12-20T14:17:46;12.57;;;5.10;;
22415;SDS011;12204;50.600;4.608;2023-12-20T14:22:51;12.60;;;4.95;;
22415;SDS011;12204;50.600;4.608;2023-12-20T14:27:56;10.88;;;4.60;;
22415;SDS011;12204;50.600;4.608;2023-12-20T14:33:00;12.48;;;4.50;;
22415;SDS011;12204;50.600;4.608;2023-12-20T14:38:06;13.80;;;4.80;;
22415;SDS011;12204;50.600;4.608;2023-12-20T14:43:09;14.85;;;5.13;;
22415;SDS011;12204;50.600;4.608;2023-12-20T14:48:14;12.07;;;4.65;;
22415;SDS011;12204;50.600;4.608;2023-12-20T14:53:19;12.52;;;4.68;;
22415;SDS011;12204;50.600;4.608;2023-12-20T14:58:24;10.43;;;4.15;;
22415;SDS011;12204;50.600;4.608;2023-12-20T15:03:28;14.70;;;4.60;;
22415;SDS011;12204;50.600;4.608;2023-12-20T15:08:33;11.52;;;4.20;;
22415;SDS011;12204;50.600;4.608;2023-12-20T15:13:37;10.18;;;3.90;;
22415;SDS011;12204;50.600;4.608;2023-12-20T15:18:41;9.45;;;3.75;;
22415;SDS011;12204;50.600;4.608;2023-12-20T15:23:47;10.13;;;4.18;;
22415;SDS011;12204;50.600;4.608;2023-12-20T15:28:54;10.02;;;3.95;;
22415;SDS011;12204;50.600;4.608;2023-12-20T15:33:58;11.00;;;3.80;;
22415;SDS011;12204;50.600;4.608;2023-12-20T15:39:03;10.50;;;3.50;;
22415;SDS011;12204;50.600;4.608;2023-12-20T15:44:09;10.13;;;3.40;;
22415;SDS011;12204;50.600;4.608;2023-12-20T15:49:13;10.73;;;3.55;;
22415;SDS011;12204;50.600;4.608;2023-12-20T15:54:20;8.50;;;3.30;;
22415;SDS011;12204;50.600;4.608;2023-12-20T15:59:23;8.65;;;3.10;;
22415;SDS011;12204;50.600;4.608;2023-12-20T16:04:28;8.65;;;3.00;;
22415;SDS011;12204;50.600;4.608;2023-12-20T16:09:33;9.45;;;3.15;;
22415;SDS011;12204;50.600;4.608;2023-12-20T16:14:36;10.18;;;3.30;;
22415;SDS011;12204;50.600;4.608;2023-12-20T16:19:40;9.38;;;2.97;;
22415;SDS011;12204;50.600;4.608;2023-12-20T16:24:45;8.82;;;2.97;;
22415;SDS011;12204;50.600;4.608;2023-12-20T16:29:48;9.52;;;2.83;;
22415;SDS011;12204;50.600;4.608;2023-12-20T16:34:52;11.30;;;3.10;;
22415;SDS011;12204;50.600;4.608;2023-12-20T16:39:57;8.43;;;3.00;;
22415;SDS011;12204;50.600;4.608;2023-12-20T16:45:00;9.77;;;3.25;;
22415;SDS011;12204;50.600;4.608;2023-12-20T16:50:05;11.07;;;3.17;;
22415;SDS011;12204;50.600;4.608;2023-12-20T16:55:13;8.85;;;2.80;;
22415;SDS011;12204;50.600;4.608;2023-12-20T17:00:17;9.02;;;2.63;;
22415;SDS011;12204;50.600;4.608;2023-12-20T17:05:21;7.72;;;2.67;;
22415;SDS011;12204;50.600;4.608;2023-12-20T17:10:26;53.60;;;5.43;;
22415;SDS011;12204;50.600;4.608;2023-12-20T17:15:29;46.63;;;5.33;;
22415;SDS011;12204;50.600;4.608;2023-12-20T17:20:33;45.15;;;5.40;;
22415;SDS011;12204;50.600;4.608;2023-12-20T17:25:38;48.85;;;5.03;;
22415;SDS011;12204;50.600;4.608;2023-12-20T17:30:42;40.22;;;5.10;;
22415;SDS011;12204;50.600;4.608;2023-12-20T17:35:48;34.13;;;4.32;;
22415;SDS011;12204;50.600;4.608;2023-12-20T17:40:57;27.95;;;4.75;;
22415;SDS011;12204;50.600;4.608;2023-12-20T17:46:01;42.28;;;5.00;;
22415;SDS011;12204;50.600;4.608;2023-12-20T17:51:04;33.40;;;4.30;;
22415;SDS011;12204;50.600;4.608;2023-12-20T17:56:10;27.60;;;4.00;;
22415;SDS011;12204;50.600;4.608;2023-12-20T18:01:14;29.33;;;4.38;;
22415;SDS011;12204;50.600;4.608;2023-12-20T18:06:17;24.63;;;3.70;;
22415;SDS011;12204;50.600;4.608;2023-12-20T18:11:22;25.20;;;3.60;;
22415;SDS011;12204;50.600;4.608;2023-12-20T18:16:26;24.33;;;3.50;;
22415;SDS011;12204;50.600;4.608;2023-12-20T18:21:29;29.10;;;4.10;;
22415;SDS011;12204;50.600;4.608;2023-12-20T18:26:35;21.75;;;3.30;;
22415;SDS011;12204;50.600;4.608;2023-12-20T18:31:40;23.25;;;3.22;;
22415;SDS011;12204;50.600;4.608;2023-12-20T18:36:47;19.20;;;3.00;;
22415;SDS011;12204;50.600;4.608;2023-12-20T18:41:52;15.90;;;3.00;;
22415;SDS011;12204;50.600;4.608;2023-12-20T18:46:55;16.73;;;2.90;;
22415;SDS011;12204;50.600;4.608;2023-12-20T18:51:59;23.90;;;4.90;;
22415;SDS011;12204;50.600;4.608;2023-12-20T18:57:05;26.42;;;6.90;;
22415;SDS011;12204;50.600;4.608;2023-12-20T19:02:11;26.47;;;6.77;;
22415;SDS011;12204;50.600;4.608;2023-12-20T19:07:14;27.05;;;6.97;;
22415;SDS011;12204;50.600;4.608;2023-12-20T19:12:19;32.97;;;10.68;;
22415;SDS011;12204;50.600;4.608;2023-12-20T19:17:23;26.48;;;8.05;;
22415;SDS011;12204;50.600;4.608;2023-12-20T19:22:26;25.67;;;8.48;;
22415;SDS011;12204;50.600;4.608;2023-12-20T19:27:35;31.27;;;8.82;;
22415;SDS011;12204;50.600;4.608;2023-12-20T19:32:38;29.52;;;9.48;;
22415;SDS011;12204;50.600;4.608;2023-12-20T19:37:42;25.23;;;8.85;;
22415;SDS011;12204;50.600;4.608;2023-12-20T19:42:47;27.48;;;9.52;;
22415;SDS011;12204;50.600;4.608;2023-12-20T19:47:51;28.50;;;10.38;;
22415;SDS011;12204;50.600;4.608;2023-12-20T19:52:55;29.45;;;9.57;;
22415;SDS011;12204;50.600;4.608;2023-12-20T19:58:00;30.73;;;10.57;;
22415;SDS011;12204;50.600;4.608;2023-12-20T20:03:04;29.10;;;10.05;;
22415;SDS011;12204;50.600;4.608;2023-12-20T20:08:07;31.63;;;10.70;;
22415;SDS011;12204;50.600;4.608;2023-12-20T20:13:12;29.70;;;10.50;;
22415;SDS011;12204;50.600;4.608;2023-12-20T20:18:16;32.10;;;11.73;;
22415;SDS011;12204;50.600;4.608;2023-12-20T20:23:21;26.33;;;11.02;;
22415;SDS011;12204;50.600;4.608;2023-12-20T20:28:26;32.15;;;12.32;;
22415;SDS011;12204;50.600;4.608;2023-12-20T20:33:30;27.65;;;11.05;;
22415;SDS011;12204;50.600;4.608;2023-12-20T20:38:34;30.60;;;11.60;;
22415;SDS011;12204;50.600;4.608;2023-12-20T20:43:39;27.92;;;11.05;;
22415;SDS011;12204;50.600;4.608;2023-12-20T20:48:43;28.33;;;11.00;;
22415;SDS011;12204;50.600;4.608;2023-12-20T20:53:52;28.15;;;11.27;;
22415;SDS011;12204;50.600;4.608;2023-12-20T20:59:13;33.17;;;12.63;;
22415;SDS011;12204;50.600;4.608;2023-12-20T21:04:17;30.40;;;12.10;;
22415;SDS011;12204;50.600;4.608;2023-12-20T21:09:20;32.63;;;11.98;;
22415;SDS011;12204;50.600;4.608;2023-12-20T21:14:25;26.73;;;11.50;;
22415;SDS011;12204;50.600;4.608;2023-12-20T21:19:29;24.98;;;10.73;;
22415;SDS011;12204;50.600;4.608;2023-12-20T21:24:33;29.77;;;11.35;;
22415;SDS011;12204;50.600;4.608;2023-12-20T21:29:38;28.02;;;10.80;;
22415;SDS011;12204;50.600;4.608;2023-12-20T21:34:42;26.08;;;11.45;;
22415;SDS011;12204;50.600;4.608;2023-12-20T21:39:45;24.88;;;10.55;;
22415;SDS011;12204;50.600;4.608;2023-12-20T21:44:50;23.75;;;9.75;;
22415;SDS011;12204;50.600;4.608;2023-12-20T21:49:54;24.17;;;9.25;;
22415;SDS011;12204;50.600;4.608;2023-12-20T21:54:57;23.23;;;10.05;;
22415;SDS011;12204;50.600;4.608;2023-12-20T22:00:02;23.00;;;9.93;;
22415;SDS011;12204;50.600;4.608;2023-12-20T22:05:10;22.35;;;9.75;;
22415;SDS011;12204;50.600;4.608;2023-12-20T22:10:13;20.50;;;8.88;;
22415;SDS011;12204;50.600;4.608;2023-12-20T22:15:19;22.08;;;8.77;;
22415;SDS011;12204;50.600;4.608;2023-12-20T22:20:22;23.10;;;9.40;;
22415;SDS011;12204;50.600;4.608;2023-12-20T22:25:26;24.23;;;9.75;;
22415;SDS011;12204;50.600;4.608;2023-12-20T22:30:31;26.27;;;10.02;;
22415;SDS011;12204;50.600;4.608;2023-12-20T22:35:35;25.08;;;10.75;;
22415;SDS011;12204;50.600;4.608;2023-12-20T22:40:38;25.05;;;11.27;;
22415;SDS011;12204;50.600;4.608;2023-12-20T22:45:43;23.02;;;10.32;;
22415;SDS011;12204;50.600;4.608;2023-12-20T22:50:46;25.25;;;10.73;;
22415;SDS011;12204;50.600;4.608;2023-12-20T22:55:50;27.63;;;11.02;;
22415;SDS011;12204;50.600;4.608;2023-12-20T23:00:55;24.45;;;9.77;;
22415;SDS011;12204;50.600;4.608;2023-12-20T23:05:58;20.95;;;9.27;;
22415;SDS011;12204;50.600;4.608;2023-12-20T23:11:02;20.38;;;9.00;;
22415;SDS011;12204;50.600;4.608;2023-12-20T23:16:08;21.02;;;9.25;;
22415;SDS011;12204;50.600;4.608;2023-12-20T23:21:13;19.55;;;8.82;;
22415;SDS011;12204;50.600;4.608;2023-12-20T23:26:17;19.05;;;8.55;;
22415;SDS011;12204;50.600;4.608;2023-12-20T23:31:23;16.67;;;8.05;;
22415;SDS011;12204;50.600;4.608;2023-12-20T23:36:28;19.90;;;8.13;;
22415;SDS011;12204;50.600;4.608;2023-12-20T23:41:31;18.98;;;7.75;;
22415;SDS011;12204;50.600;4.608;2023-12-20T23:46:36;16.35;;;7.50;;
22415;SDS011;12204;50.600;4.608;2023-12-20T23:51:40;17.58;;;7.15;;
22415;SDS011;12204;50.600;4.608;2023-12-20T23:56:46;15.93;;;6.97;;
